Time;durP1;ratioP1;P1;durP2;ratioP2;P2;SDS_P1;SDS_P2;PMS_P1;PMS_P2;Temp;Humidity;BMP_temperature;BMP_pressure;BME280_temperature;BME280_humidity;BME280_pressure;Samples;Min_cycle;Max_cycle;Signal;HPM_P1;HPM_P2
2021/08/24 00:00:58;;;;;;;0.03;0.03;;;17.20;77.40;;;;;;4902742;29;20040;-90
2021/08/24 00:07:10;;;;;;;0.10;0.10;;;17.20;77.00;;;;;;4916140;29;20048;-90
2021/08/24 00:09:46;;;;;;;0.00;0.00;;;17.20;76.70;;;;;;4902341;29;20080;-90
2021/08/24 00:12:38;;;;;;;0.10;0.10;;;17.20;76.40;;;;;;4901497;29;20477;-90
2021/08/24 00:15:31;;;;;;;0.00;0.00;;;17.20;76.60;;;;;;4902262;29;20067;-91
2021/08/24 00:18:01;;;;;;;0.00;0.00;;;17.20;75.60;;;;;;4902285;29;20193;-90
2021/08/24 00:20:54;;;;;;;0.10;0.10;;;17.20;75.40;;;;;;4902558;29;20161;-90
2021/08/24 00:23:57;;;;;;;;;;;;;;;;;;;;;
2021/08/24 00:26:26;;;;;;;0.05;0.05;;;17.20;75.20;;;;;;4922029;29;20043;-90
2021/08/24 00:28:59;;;;;;;0.03;0.03;;;17.20;75.10;;;;;;4941032;29;20062;-90
2021/08/24 00:31:40;;;;;;;0.10;0.10;;;17.20;75.20;;;;;;4940644;29;20053;-90
2021/08/24 00:34:17;;;;;;;0.10;0.10;;;17.20;75.60;;;;;;4940443;29;20401;-89
2021/08/24 00:37:19;;;;;;;0.10;0.10;;;17.10;75.50;;;;;;4941056;29;20043;-90
2021/08/24 00:39:45;;;;;;;0.00;0.00;;;17.10;75.60;;;;;;4940503;29;20036;-89
2021/08/24 00:42:20;;;;;;;0.00;0.00;;;17.00;75.50;;;;;;4957698;29;20456;-90
2021/08/24 00:44:53;;;;;;;0.10;0.10;;;17.00;75.60;;;;;;4940333;29;20524;-90
2021/08/24 00:50:32;;;;;;;0.10;0.10;;;17.00;75.60;;;;;;4955762;29;20512;-89
2021/08/24 00:53:07;;;;;;;0.10;0.10;;;17.00;75.70;;;;;;4917701;29;20514;-90
2021/08/24 00:55:42;;;;;;;0.10;0.10;;;17.00;75.70;;;;;;4901409;29;20068;-90
2021/08/24 00:58:44;;;;;;;;;;;;;;;;;;;;;
2021/08/24 01:01:35;;;;;;;;;;;;;;;;;;;;;
2021/08/24 01:04:29;;;;;;;0.10;0.10;;;16.90;76.00;;;;;;4917324;29;20528;-90
2021/08/24 01:07:28;;;;;;;0.10;0.10;;;16.90;76.00;;;;;;4916136;29;20056;-89
2021/08/24 01:10:27;;;;;;;0.10;0.10;;;16.90;76.40;;;;;;4900703;29;20047;-89
2021/08/24 01:13:22;;;;;;;0.10;0.10;;;16.90;76.30;;;;;;4917113;29;20044;-89
2021/08/24 01:15:54;;;;;;;;;;;16.80;76.10;;;;;;4901790;29;20075;-89
2021/08/24 01:19:16;;;;;;;0.10;0.10;;;16.80;76.50;;;;;;4901176;29;20409;-89
2021/08/24 01:22:20;;;;;;;0.10;0.10;;;16.80;76.70;;;;;;4901530;29;20498;-89
2021/08/24 01:25:12;;;;;;;0.00;0.00;;;16.70;76.40;;;;;;4935491;29;20449;-89
2021/08/24 01:28:02;;;;;;;0.00;0.00;;;16.70;76.50;;;;;;4938152;29;20031;-90
2021/08/24 01:31:30;;;;;;;0.10;0.10;;;16.70;76.50;;;;;;4935498;29;20490;-89
2021/08/24 01:34:35;;;;;;;0.10;0.10;;;16.70;77.00;;;;;;4919706;29;20494;-89
2021/08/24 01:37:50;;;;;;;0.10;0.10;;;16.60;76.80;;;;;;4919239;29;20039;-90
2021/08/24 01:40:41;;;;;;;0.10;0.10;;;16.60;76.70;;;;;;4888666;29;20040;-89
2021/08/24 01:43:20;;;;;;;0.10;0.10;;;16.50;76.90;;;;;;4919600;29;20056;-89
2021/08/24 01:46:11;;;;;;;0.10;0.10;;;16.50;76.70;;;;;;4935511;29;20052;-90
2021/08/24 01:49:04;;;;;;;;;;;;;;;;;;;;;
2021/08/24 01:51:51;;;;;;;0.00;0.00;;;16.50;77.20;;;;;;4936186;29;20043;-89
2021/08/24 01:54:33;;;;;;;0.10;0.10;;;16.50;77.30;;;;;;4918669;29;20054;-90
2021/08/24 01:57:27;;;;;;;0.10;0.10;;;16.50;77.10;;;;;;4919070;29;20048;-90
2021/08/24 02:00:35;;;;;;;0.10;0.10;;;16.50;77.00;;;;;;4918952;29;20138;-90
2021/08/24 02:03:45;;;;;;;0.10;0.10;;;16.50;77.50;;;;;;4935954;29;20051;-89
2021/08/24 02:06:28;;;;;;;0.10;0.10;;;16.50;77.40;;;;;;4939347;29;20419;-89
2021/08/24 02:09:10;;;;;;;0.00;0.00;;;16.50;77.40;;;;;;4938698;29;20039;-89
2021/08/24 02:11:57;;;;;;;0.10;0.10;;;16.50;77.50;;;;;;4936763;29;20075;-89
2021/08/24 02:14:36;;;;;;;0.05;0.05;;;16.50;77.60;;;;;;4939822;29;20067;-89
2021/08/24 02:17:11;;;;;;;0.00;0.00;;;16.50;77.70;;;;;;4957409;28;20059;-89
2021/08/24 02:20:17;;;;;;;;;;;;;;;;;;;;;
2021/08/24 02:23:17;;;;;;;0.10;0.10;;;16.50;77.90;;;;;;4963007;29;20143;-89
2021/08/24 02:25:59;;;;;;;0.10;0.10;;;16.50;78.00;;;;;;4919427;29;20134;-89
2021/08/24 02:29:45;;;;;;;0.10;0.10;;;16.50;78.00;;;;;;4919000;29;20091;-89
2021/08/24 02:32:26;;;;;;;0.10;0.10;;;16.50;78.50;;;;;;4911035;29;20040;-88
2021/08/24 02:35:23;;;;;;;0.00;0.00;;;16.40;78.60;;;;;;4929164;29;20043;-88
2021/08/24 02:38:29;;;;;;;0.10;0.10;;;16.40;78.90;;;;;;4963088;29;20034;-89
2021/08/24 02:41:40;;;;;;;;;;;;;;;;;;;;;
2021/08/24 02:44:39;;;;;;;0.00;0.00;;;16.30;79.00;;;;;;4931252;29;20047;-90
2021/08/24 02:50:27;;;;;;;0.10;0.10;;;16.30;79.50;;;;;;4947785;29;20396;-87
2021/08/24 02:53:43;;;;;;;;;;;;;;;;;;;;;
2021/08/24 02:56:52;;;;;;;0.10;0.10;;;16.20;79.70;;;;;;4959286;29;20055;-90
2021/08/24 03:00:53;;;;;;;;;;;;;;;;;;;;;
2021/08/24 03:02:47;;;;;;;0.10;0.10;;;16.20;80.00;;;;;;4940277;29;20047;-88
2021/08/24 03:05:13;;;;;;;0.10;0.10;;;16.20;79.90;;;;;;4942328;29;20051;-88
2021/08/24 03:07:45;;;;;;;0.10;0.10;;;16.20;80.10;;;;;;4942625;29;20038;-88
2021/08/24 03:10:17;;;;;;;0.10;0.10;;;16.20;80.30;;;;;;4946546;29;20106;-88
2021/08/24 03:12:49;;;;;;;0.10;0.10;;;16.20;80.50;;;;;;4942109;29;20082;-89
2021/08/24 03:15:35;;;;;;;0.00;0.00;;;16.20;80.70;;;;;;4943165;29;20035;-88
2021/08/24 03:18:26;;;;;;;0.10;0.10;;;16.20;81.00;;;;;;4959164;29;20227;-89
2021/08/24 03:21:00;;;;;;;0.10;0.10;;;16.20;81.00;;;;;;4959168;29;20049;-89
2021/08/24 03:23:29;;;;;;;0.10;0.10;;;16.20;80.80;;;;;;4959383;29;20039;-89
2021/08/24 03:25:56;;;;;;;0.10;0.10;;;16.20;80.80;;;;;;4941320;29;20091;-89
2021/08/24 03:28:33;;;;;;;;;;;;;;;;;;;;;
2021/08/24 03:31:13;;;;;;;0.08;0.08;;;16.30;80.90;;;;;;4959483;29;20031;-89
2021/08/24 03:33:41;;;;;;;0.10;0.10;;;16.30;81.10;;;;;;4942631;29;20039;-88
2021/08/24 03:36:07;;;;;;;0.10;0.10;;;16.30;80.90;;;;;;4941720;29;20065;-88
2021/08/24 03:38:59;;;;;;;0.10;0.10;;;16.40;81.00;;;;;;4941737;29;20035;-88
2021/08/24 03:41:36;;;;;;;0.10;0.10;;;16.50;81.20;;;;;;4936843;29;20035;-88
2021/08/24 03:44:24;;;;;;;0.00;0.00;;;16.50;80.90;;;;;;4941941;29;20043;-88
2021/08/24 03:46:52;;;;;;;0.10;0.10;;;16.70;80.80;;;;;;4941684;29;20055;-88
2021/08/24 03:49:18;;;;;;;0.10;0.10;;;16.80;80.40;;;;;;4960342;29;20038;-88
2021/08/24 03:51:47;;;;;;;0.00;0.00;;;16.90;80.30;;;;;;4941026;29;20039;-88
2021/08/24 03:54:21;;;;;;;0.10;0.10;;;16.90;80.10;;;;;;4960150;29;20096;-88
2021/08/24 03:56:47;;;;;;;0.10;0.10;;;17.10;79.90;;;;;;4941754;29;20174;-88
2021/08/24 03:59:13;;;;;;;0.10;0.10;;;17.20;79.60;;;;;;4942155;29;20063;-88
2021/08/24 04:02:05;;;;;;;0.10;0.10;;;17.30;79.40;;;;;;4943269;29;20047;-88
2021/08/24 04:04:37;;;;;;;0.00;0.00;;;17.40;78.40;;;;;;4942963;29;20118;-88
2021/08/24 04:07:09;;;;;;;0.10;0.10;;;17.40;78.20;;;;;;4940940;29;20408;-88
2021/08/24 04:09:34;;;;;;;0.00;0.00;;;17.50;77.70;;;;;;4941658;29;20039;-89
2021/08/24 04:12:00;;;;;;;0.10;0.10;;;17.50;77.20;;;;;;4940942;29;20412;-89
2021/08/24 04:14:34;;;;;;;0.10;0.10;;;17.50;76.90;;;;;;4939527;29;20576;-89
2021/08/24 04:17:03;;;;;;;0.10;0.10;;;17.60;76.50;;;;;;4941035;29;20522;-89
2021/08/24 04:19:31;;;;;;;0.10;0.10;;;17.70;76.30;;;;;;4941024;29;20027;-88
2021/08/24 04:22:07;;;;;;;0.10;0.10;;;17.70;76.10;;;;;;4942678;29;20040;-87
2021/08/24 04:24:33;;;;;;;0.10;0.10;;;17.80;75.90;;;;;;4943496;29;20507;-87
2021/08/24 04:27:01;;;;;;;0.10;0.10;;;17.90;75.70;;;;;;4944948;29;20048;-88
2021/08/24 04:29:27;;;;;;;0.00;0.00;;;18.00;75.30;;;;;;4961937;29;20058;-88
2021/08/24 04:31:55;;;;;;;0.00;0.00;;;18.10;74.70;;;;;;4942199;29;20493;-87
2021/08/24 04:34:43;;;;;;;0.00;0.00;;;18.20;74.50;;;;;;4944730;29;20528;-88
2021/08/24 04:37:09;;;;;;;0.00;0.00;;;18.30;74.00;;;;;;4952650;29;20043;-88
2021/08/24 04:39:40;;;;;;;0.03;0.03;;;18.50;73.50;;;;;;4955281;28;20050;-88
2021/08/24 04:42:14;;;;;;;0.00;0.00;;;18.60;73.00;;;;;;4949948;29;20082;-88
2021/08/24 04:44:39;;;;;;;0.00;0.00;;;18.70;72.20;;;;;;4946311;29;20035;-88
2021/08/24 04:47:09;;;;;;;0.00;0.00;;;18.70;72.10;;;;;;4940005;29;20067;-88
2021/08/24 04:49:52;;;;;;;0.08;0.08;;;18.80;71.70;;;;;;4942647;29;20500;-89
2021/08/24 04:52:21;;;;;;;0.10;0.10;;;18.90;71.40;;;;;;4941856;29;20031;-89
2021/08/24 04:54:47;;;;;;;0.10;0.10;;;19.00;71.30;;;;;;4942374;29;20041;-88
2021/08/24 04:57:12;;;;;;;0.10;0.10;;;19.10;71.00;;;;;;4960435;29;20114;-89
2021/08/24 04:59:45;;;;;;;0.03;0.03;;;19.40;70.70;;;;;;4958924;29;20031;-88
2021/08/24 05:02:36;;;;;;;0.10;0.10;;;19.60;70.70;;;;;;4941204;29;20043;-89
2021/08/24 05:05:05;;;;;;;0.10;0.10;;;20.00;70.60;;;;;;4942760;29;20051;-89
2021/08/24 05:07:33;;;;;;;0.10;0.10;;;20.30;69.90;;;;;;4941702;29;20481;-88
2021/08/24 05:10:07;;;;;;;0.10;0.10;;;20.70;70.00;;;;;;4957462;29;20055;-88
2021/08/24 05:12:44;;;;;;;;;;;21.10;69.70;;;;;;4940471;29;20039;-89
2021/08/24 05:15:26;;;;;;;0.00;0.00;;;21.50;68.40;;;;;;4940476;29;19911;-89
2021/08/24 05:18:02;;;;;;;0.10;0.10;;;22.00;67.30;;;;;;4957689;29;20114;-90
2021/08/24 05:20:35;;;;;;;0.00;0.00;;;22.30;67.60;;;;;;4942508;29;20050;-89
2021/08/24 05:23:01;;;;;;;0.00;0.00;;;22.60;65.90;;;;;;4940327;29;20031;-89
2021/08/24 05:25:27;;;;;;;0.00;0.00;;;22.90;65.80;;;;;;4940203;29;20094;-89
2021/08/24 05:30:45;;;;;;;0.00;0.00;;;23.30;65.10;;;;;;4962792;29;20043;-87
2021/08/24 05:33:21;;;;;;;0.00;0.00;;;23.60;63.70;;;;;;4961125;28;20047;-88
2021/08/24 05:35:49;;;;;;;0.00;0.00;;;24.00;63.40;;;;;;4945736;29;20512;-89
2021/08/24 05:38:18;;;;;;;0.00;0.00;;;24.60;62.50;;;;;;4940783;29;20397;-89
2021/08/24 05:41:00;;;;;;;0.00;0.00;;;25.00;60.50;;;;;;4940371;29;20405;-89
2021/08/24 05:43:39;;;;;;;0.00;0.00;;;25.20;59.90;;;;;;4940171;29;20504;-89
2021/08/24 05:46:33;;;;;;;;;;;;;;;;;;;;;
2021/08/24 05:49:04;;;;;;;0.00;0.00;;;25.90;58.30;;;;;;4958669;29;20039;-91
2021/08/24 05:51:39;;;;;;;0.00;0.00;;;26.20;57.80;;;;;;4939486;29;20044;-90
2021/08/24 05:54:07;;;;;;;0.00;0.00;;;26.50;56.60;;;;;;4956846;29;20094;-89
2021/08/24 05:56:50;;;;;;;0.00;0.00;;;26.80;56.10;;;;;;4940088;29;20049;-90
2021/08/24 05:59:18;;;;;;;0.00;0.00;;;27.30;56.10;;;;;;4940030;29;20408;-89
2021/08/24 06:01:44;;;;;;;0.00;0.00;;;27.80;55.20;;;;;;4940656;29;20035;-90
2021/08/24 06:04:10;;;;;;;0.00;0.00;;;28.20;54.40;;;;;;4940574;29;20032;-91
2021/08/24 06:06:44;;;;;;;0.00;0.00;;;28.60;53.20;;;;;;4939288;29;20058;-90
2021/08/24 06:09:15;;;;;;;0.00;0.00;;;28.90;51.50;;;;;;4938788;29;20067;-90
2021/08/24 06:12:00;;;;;;;0.00;0.00;;;29.00;51.00;;;;;;4954512;28;20047;-90
2021/08/24 06:14:35;;;;;;;0.00;0.00;;;29.10;50.40;;;;;;4963508;28;20520;-89
2021/08/24 06:17:25;;;;;;;0.00;0.00;;;29.20;50.30;;;;;;4940642;29;20221;-90
2021/08/24 06:19:53;;;;;;;0.00;0.00;;;29.40;47.90;;;;;;4940509;29;20054;-89
2021/08/24 06:22:34;;;;;;;0.00;0.00;;;29.80;49.70;;;;;;4942218;29;20031;-89
2021/08/24 06:25:09;;;;;;;0.00;0.00;;;30.30;48.70;;;;;;4942012;29;20051;-91
2021/08/24 06:27:54;;;;;;;0.00;0.00;;;30.80;49.00;;;;;;4939965;29;20043;-91
2021/08/24 06:31:00;;;;;;;0.00;0.00;;;31.30;47.90;;;;;;4941205;29;20086;-92
2021/08/24 06:33:39;;;;;;;0.00;0.00;;;31.50;45.80;;;;;;4914628;29;20071;-90
2021/08/24 06:36:11;;;;;;;0.00;0.00;;;31.40;46.60;;;;;;4957292;29;20032;-90
2021/08/24 06:38:37;;;;;;;0.00;0.00;;;31.60;46.60;;;;;;4939736;29;20043;-90
2021/08/24 06:41:23;;;;;;;0.00;0.00;;;31.80;45.30;;;;;;4957269;29;20042;-91
2021/08/24 06:44:03;;;;;;;0.00;0.00;;;32.00;44.10;;;;;;4927675;29;20031;-91
2021/08/24 06:47:14;;;;;;;;;;;;;;;;;;;;;
2021/08/24 06:49:51;;;;;;;0.00;0.00;;;32.00;44.00;;;;;;4971065;28;20073;-90
2021/08/24 06:52:27;;;;;;;0.00;0.00;;;32.00;43.30;;;;;;4940695;29;20038;-91
2021/08/24 06:55:06;;;;;;;;;;;;;;;;;;;;;
2021/08/24 06:57:59;;;;;;;0.00;0.00;;;32.30;43.30;;;;;;4957133;29;20039;-93
2021/08/24 07:00:26;;;;;;;0.00;0.00;;;32.70;43.50;;;;;;4939616;29;20035;-90
2021/08/24 07:02:53;;;;;;;0.00;0.00;;;33.00;43.00;;;;;;4939956;28;20043;-91
2021/08/24 07:05:34;;;;;;;0.00;0.00;;;33.30;42.20;;;;;;4960779;29;20045;-92
2021/08/24 07:08:28;;;;;;;;;;;;;;;;;;;;;
2021/08/24 07:11:26;;;;;;;0.00;0.00;;;33.00;40.50;;;;;;4963640;29;20552;-91
2021/08/24 07:14:22;;;;;;;;;;;;;;;;;;;;;
2021/08/24 07:17:12;;;;;;;0.00;0.00;;;32.70;40.60;;;;;;4974363;29;20082;-91
2021/08/24 07:22:59;;;;;;;0.00;0.00;;;32.80;41.80;;;;;;4960700;29;20519;-91
2021/08/24 07:25:37;;;;;;;0.00;0.00;;;33.20;41.20;;;;;;4942727;29;20055;-91
2021/08/24 07:28:46;;;;;;;0.00;0.00;;;33.40;41.50;;;;;;4943786;29;20122;-90
2021/08/24 07:31:39;;;;;;;0.10;0.10;;;33.40;40.20;;;;;;4942895;29;20468;-90
2021/08/24 07:34:26;;;;;;;0.00;0.00;;;33.60;40.90;;;;;;4943475;29;20047;-91
2021/08/24 07:37:00;;;;;;;0.00;0.00;;;34.00;40.70;;;;;;4944672;29;20054;-90
2021/08/24 07:40:07;;;;;;;0.00;0.00;;;34.20;39.90;;;;;;4942888;29;20039;-92
2021/08/24 07:43:01;;;;;;;0.05;0.05;;;34.30;39.50;;;;;;4941979;29;20047;-91
2021/08/24 07:45:27;;;;;;;0.00;0.00;;;34.10;39.60;;;;;;4942102;29;20438;-91
2021/08/24 07:48:46;;;;;;;;;;;;;;;;;;;;;
2021/08/24 07:51:28;;;;;;;0.00;0.00;;;34.90;40.00;;;;;;4968794;29;20040;-90
2021/08/24 07:54:14;;;;;;;0.00;0.00;;;34.90;38.80;;;;;;4942625;29;20042;-91
2021/08/24 07:57:12;;;;;;;0.00;0.00;;;35.00;38.20;;;;;;4960386;29;20031;-91
2021/08/24 08:03:36;;;;;;;0.00;0.00;;;35.90;38.50;;;;;;4928262;29;20035;-90
2021/08/24 08:06:15;;;;;;;0.00;0.00;;;36.20;38.00;;;;;;4962167;29;20500;-91
2021/08/24 08:09:34;;;;;;;0.00;0.00;;;36.00;36.90;;;;;;4942949;29;20094;-91
2021/08/24 08:11:59;;;;;;;0.00;0.00;;;35.60;37.80;;;;;;4936929;29;20121;-91
2021/08/24 08:14:25;;;;;;;0.00;0.00;;;35.40;36.90;;;;;;4945155;28;20067;-90
2021/08/24 08:22:49;;;;;;;0.10;0.10;;;35.10;38.30;;;;;;4920716;29;20450;-90
2021/08/24 08:25:46;;;;;;;;;;;;;;;;;;;;;
2021/08/24 08:31:24;;;;;;;0.10;0.10;;;36.80;36.10;;;;;;4825488;29;20041;-90
2021/08/24 08:33:56;;;;;;;0.10;0.10;;;36.90;36.30;;;;;;4843855;29;20034;-90
2021/08/24 08:36:49;;;;;;;0.10;0.10;;;37.20;35.50;;;;;;4845551;29;20086;-93
2021/08/24 08:39:54;;;;;;;0.10;0.10;;;37.10;35.00;;;;;;4904543;29;20104;-92
2021/08/24 08:42:32;;;;;;;0.10;0.10;;;36.80;35.60;;;;;;4920038;29;20036;-92
2021/08/24 08:45:46;;;;;;;;;;;;;;;;;;;;;
2021/08/24 08:48:53;;;;;;;;;;;;;;;;;;;;;
2021/08/24 08:52:10;;;;;;;0.00;0.00;;;37.10;33.40;;;;;;4924115;29;20103;-90
2021/08/24 08:55:02;;;;;;;0.00;0.00;;;37.00;34.60;;;;;;4885683;29;20044;-91
2021/08/24 08:57:36;;;;;;;0.00;0.00;;;37.20;33.30;;;;;;4909464;29;20047;-92
2021/08/24 09:00:24;;;;;;;0.00;0.00;;;36.70;33.50;;;;;;4912038;29;20043;-91
2021/08/24 09:03:22;;;;;;;0.00;0.00;;;36.60;33.10;;;;;;4909095;29;20513;-91
2021/08/24 09:05:58;;;;;;;0.05;0.05;;;36.30;33.10;;;;;;4911399;29;20190;-90
2021/08/24 09:11:00;;;;;;;0.10;0.10;;;36.10;34.30;;;;;;5055883;23;20061;-93
2021/08/24 09:13:38;;;;;;;0.00;0.00;;;36.50;34.20;;;;;;4967364;28;20046;-91
2021/08/24 09:16:41;;;;;;;0.00;0.00;;;36.60;33.90;;;;;;4968250;28;20200;-91
2021/08/24 09:19:18;;;;;;;0.00;0.00;;;36.80;33.80;;;;;;4973142;28;20050;-92
2021/08/24 09:21:45;;;;;;;0.00;0.00;;;36.70;33.60;;;;;;4970591;28;20038;-93
2021/08/24 09:24:23;;;;;;;0.00;0.00;;;36.70;33.10;;;;;;4977675;28;20069;-91
2021/08/24 09:27:16;;;;;;;0.00;0.00;;;36.90;34.10;;;;;;4969866;28;20051;-92
2021/08/24 09:29:50;;;;;;;0.05;0.05;;;37.40;33.80;;;;;;4967616;28;20039;-91
2021/08/24 09:32:22;;;;;;;0.00;0.00;;;38.00;34.30;;;;;;4967612;28;20050;-90
2021/08/24 09:34:51;;;;;;;0.10;0.10;;;38.10;34.90;;;;;;4968374;28;20054;-91
2021/08/24 09:37:26;;;;;;;0.00;0.00;;;38.30;34.70;;;;;;4966890;28;20124;-91
2021/08/24 09:40:00;;;;;;;0.10;0.10;;;38.50;34.00;;;;;;4966641;28;20066;-91
2021/08/24 09:42:33;;;;;;;0.10;0.10;;;38.60;33.50;;;;;;4964418;28;20035;-91
2021/08/24 09:45:20;;;;;;;0.10;0.10;;;38.80;33.60;;;;;;4971649;28;20131;-92
2021/08/24 09:48:14;;;;;;;0.05;0.05;;;39.50;34.30;;;;;;4983230;28;20054;-92
2021/08/24 09:50:48;;;;;;;0.10;0.10;;;40.70;34.40;;;;;;4982760;28;20029;-91
2021/08/24 09:53:35;;;;;;;0.10;0.10;;;40.90;34.40;;;;;;4999788;23;20153;-92
2021/08/24 09:56:07;;;;;;;0.10;0.10;;;41.00;33.90;;;;;;4974494;28;20050;-91
2021/08/24 09:58:57;;;;;;;0.10;0.10;;;40.80;34.00;;;;;;4973979;28;20026;-90
2021/08/24 10:01:23;;;;;;;0.10;0.10;;;40.70;34.30;;;;;;4983477;23;20106;-93
2021/08/24 10:04:05;;;;;;;0.10;0.10;;;40.30;34.50;;;;;;4939550;29;20094;-93
2021/08/24 10:06:34;;;;;;;0.10;0.10;;;40.00;34.30;;;;;;4954343;29;20043;-94
2021/08/24 10:09:17;;;;;;;0.20;0.20;;;39.80;34.60;;;;;;4958654;29;20147;-92
2021/08/24 10:11:44;;;;;;;0.10;0.10;;;39.80;34.60;;;;;;4961827;29;20035;-94
2021/08/24 10:14:13;;;;;;;0.10;0.10;;;40.00;34.10;;;;;;4966772;29;20098;-92
2021/08/24 10:16:45;;;;;;;0.10;0.10;;;39.50;33.70;;;;;;4973291;28;20071;-91
2021/08/24 10:19:20;;;;;;;0.10;0.05;;;39.30;34.40;;;;;;4969818;29;20040;-93
2021/08/24 10:22:00;;;;;;;0.10;0.10;;;38.70;34.50;;;;;;4959540;29;20167;-92
2021/08/24 10:24:35;;;;;;;0.08;0.08;;;38.20;35.00;;;;;;4960766;29;20039;-94
2021/08/24 10:27:30;;;;;;;0.00;0.00;;;38.00;35.60;;;;;;4960273;29;20048;-94
2021/08/24 10:30:00;;;;;;;0.10;0.10;;;38.10;35.20;;;;;;4913425;29;20046;-93
2021/08/24 10:32:49;;;;;;;0.10;0.10;;;38.50;34.90;;;;;;4959181;28;20031;-92
2021/08/24 10:35:24;;;;;;;0.10;0.10;;;38.90;34.70;;;;;;4910086;29;20046;-93
2021/08/24 10:37:51;;;;;;;0.00;0.00;;;39.00;34.90;;;;;;4956839;28;20086;-93
2021/08/24 10:40:25;;;;;;;0.10;0.10;;;39.10;33.90;;;;;;4961287;29;20036;-93
2021/08/24 10:43:17;;;;;;;0.10;0.10;;;39.20;33.20;;;;;;4964229;29;20066;-91
2021/08/24 10:46:02;;;;;;;0.00;0.00;;;38.80;33.10;;;;;;4960848;29;20137;-93
2021/08/24 10:48:33;;;;;;;0.10;0.10;;;38.70;33.90;;;;;;4961949;29;20039;-93
2021/08/24 10:51:07;;;;;;;0.10;0.10;;;38.70;33.40;;;;;;4962979;29;20039;-93
2021/08/24 10:53:45;;;;;;;0.10;0.10;;;38.70;33.60;;;;;;4960601;29;20375;-95
2021/08/24 10:56:11;;;;;;;0.10;0.10;;;38.90;33.60;;;;;;4959580;29;20555;-93
2021/08/24 10:58:54;;;;;;;0.10;0.10;;;39.20;33.10;;;;;;4968302;29;20036;-93
2021/08/24 11:01:32;;;;;;;0.10;0.10;;;39.20;33.30;;;;;;4961352;29;20343;-93
2021/08/24 11:04:12;;;;;;;0.10;0.10;;;39.40;33.30;;;;;;4961647;29;20027;-92
2021/08/24 11:07:02;;;;;;;0.10;0.10;;;39.40;32.40;;;;;;4961223;29;20079;-93
2021/08/24 11:09:53;;;;;;;0.08;0.08;;;38.90;32.20;;;;;;4959683;29;20118;-94
2021/08/24 11:12:54;;;;;;;0.00;0.00;;;38.60;32.50;;;;;;4961574;29;20049;-94
2021/08/24 11:15:38;;;;;;;0.10;0.10;;;39.10;32.70;;;;;;4961559;29;20552;-94
2021/08/24 11:18:32;;;;;;;0.05;0.05;;;39.50;32.40;;;;;;4960902;29;20165;-94
2021/08/24 11:21:30;;;;;;;0.08;0.08;;;39.50;32.20;;;;;;4961973;29;20057;-94
2021/08/24 11:24:13;;;;;;;0.05;0.05;;;39.20;31.70;;;;;;4961817;29;20504;-92
2021/08/24 11:27:01;;;;;;;0.00;0.00;;;38.70;31.70;;;;;;4966418;29;20524;-92
2021/08/24 11:29:39;;;;;;;0.10;0.10;;;38.60;32.10;;;;;;4959510;29;20039;-93
2021/08/24 11:32:25;;;;;;;0.10;0.10;;;38.50;32.10;;;;;;4958952;29;20119;-92
2021/08/24 11:35:17;;;;;;;0.00;0.00;;;38.60;32.20;;;;;;4944852;29;20106;-93
2021/08/24 11:37:51;;;;;;;0.10;0.10;;;38.80;32.20;;;;;;4959825;29;20444;-92
2021/08/24 11:40:36;;;;;;;0.08;0.08;;;38.70;32.30;;;;;;4960825;29;20418;-92
2021/08/24 11:43:07;;;;;;;0.10;0.10;;;38.40;31.70;;;;;;4960879;29;20039;-94
2021/08/24 11:45:49;;;;;;;0.10;0.10;;;38.00;32.00;;;;;;4959720;29;20515;-93
2021/08/24 11:48:24;;;;;;;0.00;0.00;;;38.10;32.40;;;;;;4960422;29;20045;-91
2021/08/24 11:51:07;;;;;;;0.00;0.00;;;38.10;32.20;;;;;;4958986;28;20035;-93
2021/08/24 11:53:45;;;;;;;0.00;0.00;;;38.30;32.50;;;;;;4959731;29;20563;-92
2021/08/24 11:56:29;;;;;;;0.00;0.00;;;38.50;32.20;;;;;;4959414;29;20039;-93
2021/08/24 11:58:56;;;;;;;0.00;0.00;;;38.40;32.40;;;;;;4958201;29;20035;-94
2021/08/24 12:01:24;;;;;;;0.10;0.10;;;38.30;32.30;;;;;;4964083;29;20059;-92
2021/08/24 12:03:53;;;;;;;0.00;0.00;;;38.00;32.30;;;;;;4966110;29;20433;-91
2021/08/24 12:06:47;;;;;;;0.00;0.00;;;37.70;32.40;;;;;;4968269;29;20075;-90
2021/08/24 12:09:33;;;;;;;0.10;0.10;;;37.70;32.20;;;;;;4874260;29;20052;-92
2021/08/24 12:11:59;;;;;;;0.03;0.03;;;37.80;32.60;;;;;;4959842;29;20761;-92
2021/08/24 12:14:27;;;;;;;0.00;0.00;;;38.00;32.60;;;;;;4958233;29;20401;-92
2021/08/24 12:17:06;;;;;;;0.00;0.00;;;38.10;32.40;;;;;;4963018;29;20601;-91
2021/08/24 12:19:35;;;;;;;0.00;0.00;;;38.30;32.60;;;;;;4963394;29;20385;-93
2021/08/24 12:22:27;;;;;;;0.00;0.00;;;38.50;32.30;;;;;;4961465;29;20034;-93
2021/08/24 12:25:30;;;;;;;0.00;0.00;;;38.60;31.30;;;;;;4917664;29;20047;-93
2021/08/24 12:28:00;;;;;;;0.00;0.00;;;38.70;31.20;;;;;;4964273;29;20485;-91
2021/08/24 12:30:30;;;;;;;0.08;0.08;;;38.80;31.60;;;;;;4967561;29;20098;-90
2021/08/24 12:32:56;;;;;;;0.00;0.00;;;38.90;31.30;;;;;;4960232;29;20027;-93
2021/08/24 12:40:53;;;;;;;0.05;0.05;;;38.70;31.50;;;;;;5075917;23;20471;-93
2021/08/24 12:43:26;;;;;;;0.00;0.00;;;38.60;31.70;;;;;;4964877;28;20518;-93
2021/08/24 12:46:22;;;;;;;0.00;0.00;;;38.40;31.70;;;;;;4966010;28;20073;-91
2021/08/24 12:49:23;;;;;;;0.00;0.00;;;38.30;31.60;;;;;;4980691;28;20089;-92
2021/08/24 12:52:20;;;;;;;0.10;0.10;;;38.40;31.80;;;;;;4971984;28;20042;-92
2021/08/24 12:54:53;;;;;;;0.00;0.00;;;38.60;32.40;;;;;;4980777;28;20484;-93
2021/08/24 12:57:29;;;;;;;0.00;0.00;;;38.60;31.60;;;;;;4965468;28;20034;-93
2021/08/24 13:00:09;;;;;;;0.00;0.00;;;38.90;31.60;;;;;;4964657;28;20047;-93
2021/08/24 13:02:38;;;;;;;0.00;0.00;;;39.00;31.60;;;;;;4960740;28;20038;-94
2021/08/24 13:05:23;;;;;;;0.00;0.00;;;39.00;31.70;;;;;;4964921;28;20051;-93
2021/08/24 13:08:06;;;;;;;0.10;0.10;;;38.70;32.10;;;;;;4967792;28;20027;-92
2021/08/24 13:10:49;;;;;;;0.00;0.00;;;38.60;32.20;;;;;;4962374;28;20133;-94
2021/08/24 13:13:31;;;;;;;0.00;0.00;;;38.60;32.30;;;;;;4968878;28;20047;-94
2021/08/24 13:16:01;;;;;;;0.00;0.00;;;38.30;32.50;;;;;;4965025;28;20038;-92
2021/08/24 13:18:32;;;;;;;0.00;0.00;;;38.30;32.70;;;;;;4962389;28;20046;-93
2021/08/24 13:21:09;;;;;;;0.00;0.00;;;38.40;32.30;;;;;;4963495;28;20030;-91
2021/08/24 13:23:40;;;;;;;0.00;0.00;;;38.80;32.10;;;;;;4963353;28;20050;-91
2021/08/24 13:26:22;;;;;;;0.00;0.00;;;38.90;31.70;;;;;;4963478;28;20043;-93
2021/08/24 13:28:54;;;;;;;0.00;0.00;;;38.80;31.30;;;;;;4980314;28;20034;-93
2021/08/24 13:31:42;;;;;;;0.00;0.00;;;38.50;31.40;;;;;;4966451;28;20031;-92
2021/08/24 13:34:21;;;;;;;0.00;0.00;;;38.00;31.50;;;;;;5133607;23;20475;-90
2021/08/24 13:36:55;;;;;;;0.00;0.00;;;37.70;31.60;;;;;;4939804;29;20442;-90
2021/08/24 13:39:22;;;;;;;0.00;0.00;;;37.60;32.00;;;;;;4958650;23;20500;-89
2021/08/24 13:41:55;;;;;;;0.00;0.00;;;37.40;32.10;;;;;;4961070;28;20035;-88
2021/08/24 13:50:01;;;;;;;0.00;0.00;;;36.80;32.40;;;;;;4934258;23;20785;-92
2021/08/24 14:03:20;;;;;;;0.00;0.00;;;37.20;31.70;;;;;;4938994;29;20059;-92
2021/08/24 14:05:53;;;;;;;0.00;0.00;;;37.20;31.80;;;;;;4923138;29;20059;-93
2021/08/24 14:08:22;;;;;;;0.00;0.00;;;37.20;31.80;;;;;;4923227;29;20043;-93
2021/08/24 14:11:03;;;;;;;0.00;0.00;;;37.30;32.00;;;;;;4922675;29;20408;-92
2021/08/24 14:13:39;;;;;;;0.00;0.00;;;37.10;32.10;;;;;;4922353;29;20501;-92
2021/08/24 14:16:33;;;;;;;0.00;0.00;;;36.90;32.60;;;;;;4923994;29;20050;-92
2021/08/24 14:19:21;;;;;;;0.00;0.00;;;36.70;32.00;;;;;;4924275;29;20059;-92
2021/08/24 14:21:47;;;;;;;0.00;0.00;;;36.30;31.90;;;;;;4923498;29;20044;-92
2021/08/24 14:24:19;;;;;;;0.00;0.00;;;36.20;32.10;;;;;;4924425;29;20505;-91
2021/08/24 14:26:54;;;;;;;0.00;0.00;;;36.10;32.40;;;;;;4923809;29;20062;-93
2021/08/24 14:29:25;;;;;;;0.00;0.00;;;35.90;32.20;;;;;;4924528;29;20136;-92
2021/08/24 14:32:00;;;;;;;0.00;0.00;;;35.80;32.50;;;;;;4927801;29;20046;-93
2021/08/24 14:34:29;;;;;;;0.00;0.00;;;35.50;32.70;;;;;;4925406;29;20040;-92
2021/08/24 14:37:23;;;;;;;0.00;0.00;;;35.20;33.10;;;;;;4930106;29;20067;-89
2021/08/24 14:39:56;;;;;;;;;;;34.60;33.50;;;;;;4948506;29;20126;-91
2021/08/24 14:42:47;;;;;;;0.00;0.00;;;34.00;34.30;;;;;;4926904;29;19915;-91
2021/08/24 14:45:22;;;;;;;0.00;0.00;;;33.00;35.20;;;;;;4932984;29;20100;-92
2021/08/24 14:48:02;;;;;;;0.00;0.00;;;32.10;36.20;;;;;;4925398;29;20050;-93
2021/08/24 14:50:34;;;;;;;0.00;0.00;;;31.40;37.10;;;;;;4924004;29;20059;-91
2021/08/24 14:53:02;;;;;;;0.00;0.00;;;30.80;37.70;;;;;;4922057;29;20035;-91
2021/08/24 14:55:38;;;;;;;0.00;0.00;;;30.10;37.90;;;;;;4923067;29;20127;-92
2021/08/24 14:58:19;;;;;;;0.00;0.00;;;29.70;38.10;;;;;;4922230;29;20040;-92
2021/08/24 15:00:51;;;;;;;0.00;0.00;;;29.30;38.50;;;;;;4924296;29;20063;-92
2021/08/24 15:03:17;;;;;;;0.00;0.00;;;29.00;38.70;;;;;;4924472;29;20040;-93
2021/08/24 15:05:48;;;;;;;0.00;0.00;;;28.80;39.00;;;;;;4922438;29;20096;-92
2021/08/24 15:08:26;;;;;;;0.00;0.00;;;28.70;39.60;;;;;;4924476;29;20036;-92
2021/08/24 15:11:07;;;;;;;0.00;0.00;;;28.50;40.40;;;;;;4925227;29;20043;-91
2021/08/24 15:13:45;;;;;;;0.00;0.00;;;28.30;40.40;;;;;;4943571;29;20099;-91